createdAt,value
2023-01-25T00:00:10.386Z,20.42
2023-01-25T00:02:37.184Z,22.05
2023-01-25T00:05:04.336Z,23.13
2023-01-25T00:07:30.960Z,22.92
2023-01-25T00:09:57.593Z,22.90
2023-01-25T00:12:24.339Z,22.83
2023-01-25T00:14:51.036Z,22.88
2023-01-25T00:17:17.703Z,23.30
2023-01-25T00:19:44.399Z,21.77
2023-01-25T00:22:11.062Z,22.63
2023-01-25T00:24:37.682Z,22.02
2023-01-25T00:27:22.747Z,21.13
2023-01-25T00:29:49.475Z,22.63
2023-01-25T00:32:16.147Z,22.05
2023-01-25T00:34:52.394Z,24.98
2023-01-25T00:37:41.151Z,22.80
2023-01-25T00:40:12.804Z,24.77
2023-01-25T00:42:41.242Z,23.08
2023-01-25T00:45:12.978Z,22.90
2023-01-25T00:47:47.192Z,24.35
2023-01-25T00:52:42.761Z,22.45
2023-01-25T00:55:10.269Z,21.38
2023-01-25T00:57:37.142Z,25.92
2023-01-25T01:00:07.973Z,26.60
2023-01-25T01:02:37.588Z,25.80
2023-01-25T01:05:08.126Z,26.90
2023-01-25T01:07:35.087Z,26.23
2023-01-25T01:10:01.942Z,25.08
2023-01-25T01:12:28.680Z,25.92
2023-01-25T01:14:56.581Z,25.67
2023-01-25T01:17:23.513Z,25.80
2023-01-25T01:19:50.234Z,25.58
2023-01-25T01:22:16.944Z,23.83
2023-01-25T01:24:43.629Z,24.70
2023-01-25T01:27:10.439Z,28.08
2023-01-25T01:29:37.109Z,27.45
2023-01-25T01:32:04.185Z,25.80
2023-01-25T01:34:30.941Z,28.15
2023-01-25T01:36:57.656Z,26.40
2023-01-25T01:39:24.529Z,26.88
2023-01-25T01:41:51.272Z,28.33
2023-01-25T01:44:41.917Z,27.60
2023-01-25T01:47:28.849Z,27.52
2023-01-25T01:50:09.636Z,27.52
2023-01-25T01:52:38.538Z,30.08
2023-01-25T01:55:22.069Z,27.95
2023-01-25T01:58:00.733Z,29.15
2023-01-25T02:00:38.428Z,28.92
2023-01-25T02:03:07.781Z,29.23
2023-01-25T02:05:55.821Z,29.98
2023-01-25T02:08:24.996Z,30.30
2023-01-25T02:10:52.128Z,27.13
2023-01-25T02:13:21.398Z,30.95
2023-01-25T02:15:53.664Z,30.85
2023-01-25T02:18:20.576Z,30.50
2023-01-25T02:20:52.513Z,30.98
2023-01-25T02:23:53.518Z,29.48
2023-01-25T02:26:23.417Z,28.25
2023-01-25T02:29:20.156Z,29.85
2023-01-25T02:31:49.542Z,28.67
2023-01-25T02:34:16.258Z,26.13
2023-01-25T02:36:43.407Z,28.73
2023-01-25T02:39:20.091Z,28.98
2023-01-25T02:41:50.367Z,28.08
2023-01-25T02:44:27.635Z,28.60
2023-01-25T02:46:54.777Z,27.83
2023-01-25T02:49:21.997Z,27.65
2023-01-25T02:51:57.473Z,30.02
2023-01-25T02:54:26.842Z,26.20
2023-01-25T02:56:57.320Z,30.30
2023-01-25T02:59:24.186Z,28.20
2023-01-25T03:01:51.006Z,29.25
2023-01-25T03:04:17.999Z,30.73
2023-01-25T03:06:44.730Z,27.48
2023-01-25T03:09:12.409Z,30.77
2023-01-25T03:11:39.108Z,27.60
2023-01-25T03:14:09.047Z,26.33
2023-01-25T03:16:35.725Z,26.02
2023-01-25T03:19:02.620Z,26.83
2023-01-25T03:21:29.393Z,25.13
2023-01-25T03:24:01.882Z,26.17
2023-01-25T03:26:30.191Z,19.92
2023-01-25T03:28:57.220Z,24.35
2023-01-25T03:31:24.971Z,24.83
2023-01-25T03:33:51.935Z,25.45
2023-01-25T03:36:25.889Z,23.63
2023-01-25T03:38:52.532Z,24.70
2023-01-25T03:41:21.231Z,27.77
2023-01-25T03:43:47.831Z,23.95
2023-01-25T03:46:14.506Z,24.58
2023-01-25T03:48:41.406Z,25.52
2023-01-25T03:51:09.462Z,25.38
2023-01-25T03:53:36.183Z,26.55
2023-01-25T03:56:11.998Z,26.05
2023-01-25T03:58:40.076Z,24.77
2023-01-25T04:01:10.517Z,24.88
2023-01-25T04:03:37.825Z,25.08
2023-01-25T04:06:06.302Z,23.02
2023-01-25T04:08:33.155Z,20.38
2023-01-25T04:11:12.029Z,26.98
2023-01-25T04:13:40.018Z,22.17
2023-01-25T04:16:15.964Z,24.85
2023-01-25T04:18:43.569Z,23.73
2023-01-25T04:21:13.007Z,25.58
2023-01-25T04:23:39.789Z,22.83
2023-01-25T04:26:14.608Z,24.50
2023-01-25T04:28:41.751Z,22.70
2023-01-25T04:31:09.703Z,22.05
2023-01-25T04:33:42.032Z,23.77
2023-01-25T04:36:11.368Z,22.42
2023-01-25T04:38:38.168Z,23.13
2023-01-25T04:41:05.294Z,24.83
2023-01-25T04:43:32.284Z,22.70
2023-01-25T04:46:02.876Z,22.58
2023-01-25T04:48:35.338Z,18.15
2023-01-25T04:51:02.040Z,22.52
2023-01-25T04:53:28.703Z,19.75
2023-01-25T04:55:55.299Z,22.33
2023-01-25T04:58:22.072Z,23.05
2023-01-25T05:00:48.973Z,16.65
2023-01-25T05:03:15.806Z,20.95
2023-01-25T05:05:47.896Z,22.23
2023-01-25T05:08:14.613Z,24.20
2023-01-25T05:10:41.343Z,23.88
2023-01-25T05:13:07.929Z,23.92
2023-01-25T05:15:37.521Z,20.58
2023-01-25T05:18:11.362Z,24.13
2023-01-25T05:20:38.048Z,22.55
2023-01-25T05:23:04.729Z,22.60
2023-01-25T05:25:50.004Z,24.00
2023-01-25T05:28:16.657Z,23.30
2023-01-25T05:30:43.307Z,23.02
2023-01-25T05:33:09.955Z,23.00
2023-01-25T05:35:36.548Z,23.35
2023-01-25T05:38:03.571Z,22.33
2023-01-25T05:40:30.277Z,24.08
2023-01-25T05:42:59.743Z,20.42
2023-01-25T05:45:26.896Z,22.10
2023-01-25T05:47:56.692Z,21.45
2023-01-25T05:50:26.297Z,24.13
2023-01-25T05:52:52.927Z,23.33
2023-01-25T05:55:19.987Z,23.38
2023-01-25T06:03:08.411Z,25.75
2023-01-25T07:05:00.078Z,27.15
2023-01-25T07:07:26.939Z,23.90
2023-01-25T07:09:54.061Z,30.00
2023-01-25T07:12:20.789Z,30.52
2023-01-25T07:14:49.412Z,26.15
2023-01-25T08:35:40.260Z,19.85
2023-01-25T08:38:07.146Z,18.55
2023-01-25T08:40:35.859Z,18.92
2023-01-25T08:43:04.957Z,21.75
2023-01-25T08:45:34.449Z,17.02
2023-01-25T08:48:01.112Z,22.60
2023-01-25T08:50:27.889Z,19.02
2023-01-25T08:52:54.549Z,14.38
2023-01-25T08:55:21.467Z,21.05
2023-01-25T08:57:49.226Z,21.10
2023-01-25T09:00:20.890Z,20.38
2023-01-25T09:02:47.484Z,21.08
2023-01-25T09:05:14.278Z,20.70
2023-01-25T09:07:41.208Z,26.23
2023-01-25T09:10:09.231Z,20.95
2023-01-25T09:12:36.363Z,20.63
2023-01-25T09:15:04.773Z,19.55
2023-01-25T09:17:31.430Z,18.98
2023-01-25T09:19:58.190Z,19.55
2023-01-25T09:22:25.052Z,20.45
2023-01-25T09:24:53.867Z,21.27
2023-01-25T09:27:23.678Z,20.10
2023-01-25T09:30:01.542Z,19.35
2023-01-25T09:32:29.440Z,17.88
2023-01-25T09:34:56.270Z,17.33
2023-01-25T09:37:23.180Z,19.60
2023-01-25T09:39:49.824Z,20.10
2023-01-25T09:42:43.699Z,18.30
2023-01-25T09:45:34.609Z,16.20
2023-01-25T09:48:53.914Z,20.48
2023-01-25T09:52:38.850Z,19.33
2023-01-25T09:55:16.834Z,19.38
2023-01-25T09:57:48.155Z,19.20
2023-01-25T10:00:31.578Z,18.95
2023-01-25T10:03:25.454Z,16.33
2023-01-25T10:05:59.909Z,14.33
2023-01-25T10:08:30.696Z,17.92
2023-01-25T10:11:32.992Z,18.35
2023-01-25T10:14:00.644Z,19.13
2023-01-25T10:16:37.389Z,19.60
2023-01-25T10:19:35.113Z,15.88
2023-01-25T10:22:19.459Z,20.73
2023-01-25T10:25:19.544Z,16.90
2023-01-25T10:28:37.388Z,18.10
2023-01-25T10:31:16.662Z,11.43
2023-01-25T10:33:48.180Z,20.27
2023-01-25T10:36:24.228Z,16.52
2023-01-25T10:38:55.476Z,16.88
2023-01-25T10:41:38.478Z,21.13
2023-01-25T10:44:23.936Z,20.58
2023-01-25T10:47:00.950Z,20.38
2023-01-25T10:49:56.301Z,20.67
2023-01-25T10:52:30.461Z,18.67
2023-01-25T10:55:24.948Z,18.40
2023-01-25T10:57:57.935Z,16.30
2023-01-25T11:00:42.714Z,18.25
2023-01-25T11:03:39.905Z,18.80
2023-01-25T11:06:09.505Z,16.70
2023-01-25T11:08:42.969Z,19.67
2023-01-25T11:11:41.426Z,16.98
2023-01-25T11:14:18.775Z,16.35
2023-01-25T11:16:48.492Z,20.08
2023-01-25T11:19:37.307Z,18.88
2023-01-25T11:22:22.388Z,18.08
2023-01-25T11:24:49.089Z,18.42
2023-01-25T11:27:26.438Z,20.38
2023-01-25T11:30:21.337Z,19.05
2023-01-25T11:35:30.291Z,19.88
2023-01-25T11:38:26.087Z,20.00
2023-01-25T11:41:28.994Z,18.70
2023-01-25T11:45:12.936Z,17.25
2023-01-25T11:48:02.860Z,20.13
2023-01-25T11:50:51.039Z,19.17
2023-01-25T11:54:07.046Z,20.58
2023-01-25T11:57:07.474Z,18.00
2023-01-25T11:59:59.823Z,19.80
2023-01-25T12:02:42.755Z,20.23
2023-01-25T12:05:43.080Z,21.83
2023-01-25T12:09:19.671Z,22.38
2023-01-25T12:12:29.530Z,19.85
2023-01-25T12:15:35.629Z,21.60
2023-01-25T12:19:03.184Z,22.20
2023-01-25T12:22:17.686Z,22.23
2023-01-25T12:25:20.864Z,21.30
2023-01-25T12:28:19.651Z,21.33
2023-01-25T12:31:17.298Z,18.63
2023-01-25T12:34:04.035Z,23.35
2023-01-25T12:36:48.168Z,18.90
2023-01-25T12:39:32.169Z,22.25
2023-01-25T12:42:11.905Z,21.70
2023-01-25T14:28:13.755Z,25.05
2023-01-25T14:44:32.896Z,31.20
2023-01-25T14:47:34.113Z,32.15
2023-01-25T14:50:40.943Z,32.03
2023-01-25T14:53:27.119Z,30.92
2023-01-25T14:55:53.957Z,32.08
2023-01-25T14:58:27.765Z,32.13
2023-01-25T15:01:03.706Z,29.85
2023-01-25T15:03:31.888Z,31.08
2023-01-25T15:06:04.993Z,23.90
2023-01-25T15:08:51.967Z,29.27
2023-01-25T15:11:49.366Z,29.92
2023-01-25T15:14:22.177Z,30.70
2023-01-25T15:16:49.051Z,27.15
2023-01-25T15:19:30.995Z,26.77
2023-01-25T15:22:01.198Z,32.42
2023-01-25T15:24:28.636Z,26.20
2023-01-25T15:26:56.307Z,25.95
2023-01-25T15:29:28.834Z,29.05
2023-01-25T15:31:56.656Z,28.35
2023-01-25T15:34:32.590Z,29.83
2023-01-25T15:36:59.237Z,29.20
2023-01-25T15:39:31.424Z,33.42
2023-01-25T15:41:58.139Z,32.15
2023-01-25T15:44:27.199Z,30.17
2023-01-25T15:46:54.150Z,32.25
2023-01-25T15:49:32.633Z,30.33
2023-01-25T15:51:59.338Z,32.30
2023-01-25T15:54:26.366Z,31.77
2023-01-25T15:56:59.037Z,27.95
2023-01-25T15:59:29.387Z,29.23
2023-01-25T16:01:56.104Z,30.08
2023-01-25T16:04:25.131Z,33.80
2023-01-25T16:06:54.828Z,31.10
2023-01-25T16:09:29.543Z,27.55
2023-01-25T16:12:00.769Z,33.47
2023-01-25T16:14:33.165Z,31.58
2023-01-25T16:17:05.536Z,29.60
2023-01-25T16:19:33.630Z,33.20
2023-01-25T16:22:00.390Z,31.88
2023-01-25T16:24:27.550Z,32.67
2023-01-25T16:26:58.709Z,29.27
2023-01-25T16:29:26.752Z,33.05
2023-01-25T16:31:55.649Z,33.70
2023-01-25T16:34:23.129Z,33.20
2023-01-25T16:36:51.016Z,35.80
2023-01-25T16:39:29.360Z,33.97
2023-01-25T16:41:57.499Z,34.65
2023-01-25T16:44:24.430Z,35.38
2023-01-25T16:46:51.708Z,36.30
2023-01-25T16:49:30.673Z,29.75
2023-01-25T16:51:58.490Z,34.72
2023-01-25T16:54:26.663Z,34.80
2023-01-25T16:56:54.986Z,35.00
2023-01-25T16:59:24.992Z,31.27
2023-01-25T17:01:52.335Z,33.85
2023-01-25T17:04:19.725Z,32.40
2023-01-25T17:06:50.242Z,34.08
2023-01-25T17:09:25.510Z,34.83
2023-01-25T17:11:54.642Z,35.15
2023-01-25T17:14:25.292Z,33.53
2023-01-25T17:16:53.517Z,34.63
2023-01-25T17:19:20.986Z,34.75
2023-01-25T17:21:48.533Z,30.08
2023-01-25T17:24:21.500Z,32.10
2023-01-25T17:26:48.438Z,31.92
2023-01-25T17:29:15.320Z,31.35
2023-01-25T17:31:45.625Z,33.42
2023-01-25T17:34:18.121Z,33.20
2023-01-25T17:36:46.391Z,34.28
2023-01-25T17:39:16.528Z,30.40
2023-01-25T17:41:50.938Z,32.03
2023-01-25T17:44:22.785Z,31.98
2023-01-25T17:46:50.836Z,31.17
2023-01-25T17:49:18.838Z,32.45
2023-01-25T17:51:46.406Z,34.22
2023-01-25T17:54:13.420Z,35.50
2023-01-25T17:56:40.970Z,31.58
2023-01-25T17:59:11.593Z,34.67
2023-01-25T18:01:40.060Z,32.58
2023-01-25T18:39:11.137Z,30.83
2023-01-25T19:11:24.062Z,32.22
2023-01-25T19:40:42.478Z,34.22
2023-01-25T19:43:09.287Z,30.73
2023-01-25T19:45:36.042Z,29.30
2023-01-25T19:48:05.418Z,29.60
2023-01-25T19:50:32.138Z,30.52
2023-01-25T19:52:58.827Z,31.75
2023-01-25T19:55:25.423Z,27.23
2023-01-25T19:57:52.108Z,28.50
2023-01-25T20:00:19.966Z,28.48
2023-01-25T20:02:46.662Z,31.73
2023-01-25T20:05:13.400Z,32.97
2023-01-25T20:07:49.218Z,30.17
2023-01-25T20:10:16.400Z,26.45
2023-01-25T20:12:43.034Z,30.40
2023-01-25T20:15:13.300Z,30.92
2023-01-25T20:17:41.985Z,32.65
2023-01-25T20:20:10.932Z,28.67
2023-01-25T20:27:59.964Z,28.05
2023-01-25T20:36:02.339Z,31.52
2023-01-25T20:38:36.399Z,31.98
2023-01-25T20:41:08.244Z,31.45
2023-01-25T20:43:35.729Z,30.23
2023-01-25T20:46:03.061Z,29.50
2023-01-25T20:48:36.395Z,27.25
2023-01-25T20:51:13.916Z,30.77
2023-01-25T20:53:43.386Z,28.42
2023-01-25T20:56:13.460Z,29.70
2023-01-25T20:58:40.650Z,30.13
2023-01-25T21:01:17.201Z,28.77
2023-01-25T21:03:44.119Z,27.42
2023-01-25T21:06:12.135Z,30.13
2023-01-25T21:08:39.494Z,25.70
2023-01-25T21:11:11.222Z,20.65
2023-01-25T21:13:38.054Z,27.45
2023-01-25T21:16:16.401Z,29.08
2023-01-25T21:18:50.703Z,29.25
2023-01-25T21:23:58.973Z,27.77
2023-01-25T21:26:30.813Z,26.00
2023-01-25T21:29:00.886Z,31.02
2023-01-25T21:31:36.352Z,29.83
2023-01-25T21:34:05.282Z,28.00
2023-01-25T21:36:32.902Z,32.75
2023-01-25T21:38:59.985Z,30.80
2023-01-25T21:41:33.285Z,30.15
2023-01-25T21:44:19.832Z,27.73
2023-01-25T21:47:12.449Z,31.67
2023-01-25T21:49:55.310Z,26.63
2023-01-25T21:52:21.977Z,28.35
2023-01-25T21:54:48.922Z,29.63
2023-01-25T21:57:15.884Z,27.40
2023-01-25T21:59:43.922Z,28.25
2023-01-25T22:02:16.503Z,28.75
2023-01-25T22:04:43.372Z,32.03
2023-01-25T22:07:11.684Z,30.63
2023-01-25T22:09:41.547Z,28.63
2023-01-25T22:12:08.418Z,27.80
2023-01-25T22:14:35.160Z,24.50
2023-01-25T22:17:03.092Z,24.67
2023-01-25T22:19:29.731Z,28.40
2023-01-25T22:21:56.516Z,27.80
2023-01-25T22:24:23.531Z,29.08
2023-01-25T22:27:08.516Z,28.73
2023-01-25T22:29:35.192Z,27.13
2023-01-25T22:32:02.344Z,22.60
2023-01-25T22:34:29.099Z,27.00
2023-01-25T22:36:55.757Z,26.92
2023-01-25T22:39:22.412Z,25.13
2023-01-25T22:41:49.047Z,25.15
2023-01-25T22:44:16.551Z,25.92
2023-01-25T22:46:43.212Z,25.77
2023-01-25T22:49:10.003Z,26.70
2023-01-25T22:51:36.796Z,25.27
2023-01-25T22:54:03.633Z,27.63
2023-01-25T22:56:33.700Z,25.23
2023-01-25T22:59:02.154Z,26.88
2023-01-25T23:01:34.250Z,24.17
2023-01-25T23:04:02.477Z,25.98
2023-01-25T23:06:34.134Z,26.75
2023-01-25T23:09:04.819Z,26.75
2023-01-25T23:11:37.858Z,24.65
2023-01-25T23:14:29.902Z,26.07
2023-01-25T23:17:17.206Z,26.33
2023-01-25T23:19:44.222Z,25.30
2023-01-25T23:22:10.966Z,24.48
2023-01-25T23:24:37.624Z,26.35
2023-01-25T23:27:04.334Z,24.63
2023-01-25T23:29:31.731Z,24.77
2023-01-25T23:31:58.376Z,24.42
2023-01-25T23:34:25.329Z,24.40
2023-01-25T23:36:51.993Z,24.25
2023-01-25T23:39:19.784Z,26.88
2023-01-25T23:41:46.653Z,25.27
2023-01-25T23:44:13.330Z,25.58
2023-01-25T23:46:42.956Z,26.88
2023-01-25T23:49:12.465Z,25.45
2023-01-25T23:51:39.082Z,28.52
2023-01-25T23:54:06.018Z,25.73
2023-01-25T23:56:32.702Z,25.08
2023-01-25T23:58:59.490Z,26.63
